Time;durP1;ratioP1;P1;durP2;ratioP2;P2;SDS_P1;SDS_P2;PMS_P1;PMS_P2;Temp;Humidity;BMP_temperature;BMP_pressure;BME280_temperature;BME280_humidity;BME280_pressure;Samples;Min_cycle;Max_cycle;Signal;HPM_P1;HPM_P2
2022/10/23 00:07:11;;;;;;;4.70;2.83;;;10.60;99.90;;;;;;20793544;28;20483;-61
2022/10/23 00:17:14;;;;;;;6.57;3.10;;;10.60;99.90;;;;;;20793131;28;20045;-62
2022/10/23 00:27:16;;;;;;;9.02;3.22;;;10.70;99.90;;;;;;20877721;27;20089;-63
2022/10/23 00:37:19;;;;;;;9.82;4.47;;;10.80;99.90;;;;;;20791716;28;20064;-62
2022/10/23 00:47:21;;;;;;;8.55;4.25;;;10.90;99.90;;;;;;20827334;28;20065;-62
2022/10/23 00:57:25;;;;;;;9.57;4.17;;;11.20;99.90;;;;;;21117881;28;20380;-62
2022/10/23 01:07:46;;;;;;;6.57;3.83;;;11.10;99.90;;;;;;21134174;28;20380;-62
2022/10/23 01:18:05;;;;;;;9.55;4.50;;;11.00;99.90;;;;;;21098518;28;20104;-61
2022/10/23 01:28:14;;;;;;;13.48;6.30;;;11.00;99.90;;;;;;21101460;28;20036;-61
2022/10/23 01:38:34;;;;;;;12.05;5.70;;;11.20;99.90;;;;;;21116584;28;20101;-62
2022/10/23 01:48:52;;;;;;;8.02;5.40;;;11.20;99.90;;;;;;21139491;27;20101;-62
2022/10/23 01:59:00;;;;;;;13.80;6.28;;;11.20;99.90;;;;;;21148145;27;20481;-62
2022/10/23 02:09:07;;;;;;;13.02;7.38;;;11.30;99.90;;;;;;21115027;27;20358;-61
2022/10/23 02:19:30;;;;;;;24.75;13.25;;;11.40;99.90;;;;;;21146282;27;20039;-61
2022/10/23 02:29:47;;;;;;;24.58;10.85;;;11.60;99.90;;;;;;21131598;27;20068;-61
2022/10/23 02:39:51;;;;;;;15.77;10.35;;;11.80;99.90;;;;;;21144857;27;20047;-61
2022/10/23 02:50:26;;;;;;;18.15;9.75;;;11.80;99.90;;;;;;21059820;28;20040;-61
2022/10/23 03:00:35;;;;;;;16.17;10.68;;;11.80;99.90;;;;;;21075804;28;20044;-61
2022/10/23 03:10:39;;;;;;;20.48;12.15;;;11.90;99.90;;;;;;21042329;28;20029;-61
2022/10/23 03:20:42;;;;;;;25.30;14.73;;;11.90;99.90;;;;;;21057383;28;20105;-61
2022/10/23 03:30:45;;;;;;;34.75;20.05;;;12.00;99.90;;;;;;21073376;28;20113;-61
2022/10/23 03:40:49;;;;;;;40.97;20.38;;;12.00;99.90;;;;;;21068764;28;20036;-62
2022/10/23 03:50:51;;;;;;;48.67;22.85;;;12.00;99.90;;;;;;21071536;28;20040;-61
2022/10/23 04:00:54;;;;;;;47.90;21.50;;;12.00;99.90;;;;;;21075401;28;20036;-62
2022/10/23 04:10:56;;;;;;;34.97;17.65;;;12.10;99.90;;;;;;21036427;28;20061;-62
2022/10/23 04:21:10;;;;;;;38.78;19.02;;;12.30;99.90;;;;;;21054159;28;20048;-61
2022/10/23 04:31:14;;;;;;;32.08;18.40;;;12.30;99.90;;;;;;21052830;28;20028;-62
2022/10/23 04:41:19;;;;;;;37.88;20.63;;;12.20;99.90;;;;;;21053378;28;20102;-61
2022/10/23 04:51:22;;;;;;;31.45;15.63;;;12.20;99.90;;;;;;21131418;28;20380;-61
2022/10/23 05:01:36;;;;;;;34.85;18.73;;;12.20;99.90;;;;;;21118469;28;20054;-62
2022/10/23 05:11:41;;;;;;;26.35;16.35;;;12.30;99.90;;;;;;21102023;28;20031;-61
2022/10/23 05:21:47;;;;;;;165.57;24.10;;;12.30;99.90;;;;;;21134438;27;20040;-61
2022/10/23 05:31:56;;;;;;;282.88;29.63;;;12.30;99.90;;;;;;21151578;27;20065;-62
2022/10/23 05:41:59;;;;;;;66.25;17.20;;;12.20;99.90;;;;;;21132199;27;20056;-63
2022/10/23 05:52:02;;;;;;;222.30;24.00;;;12.10;99.90;;;;;;21148380;27;20035;-62
2022/10/23 06:02:25;;;;;;;484.13;36.47;;;12.10;99.90;;;;;;21148028;27;20040;-62
2022/10/23 06:12:34;;;;;;;463.70;34.33;;;12.10;99.90;;;;;;21130092;27;20043;-62
2022/10/23 06:22:36;;;;;;;287.92;30.75;;;12.10;99.90;;;;;;21129251;27;20076;-61
2022/10/23 06:32:55;;;;;;;181.52;24.48;;;12.20;99.90;;;;;;21127621;27;20496;-62
2022/10/23 06:42:57;;;;;;;787.17;42.42;;;12.40;99.90;;;;;;21127580;27;20051;-61
2022/10/23 06:53:19;;;;;;;31.17;18.30;;;12.50;99.90;;;;;;21143641;27;20043;-62
2022/10/23 07:03:28;;;;;;;25.17;13.20;;;12.60;99.90;;;;;;21143061;27;20085;-62
2022/10/23 07:13:31;;;;;;;22.90;15.27;;;12.90;99.90;;;;;;21125526;27;20101;-61
2022/10/23 07:23:45;;;;;;;32.35;16.77;;;13.10;99.90;;;;;;21140946;27;20464;-64
2022/10/23 07:33:51;;;;;;;21.40;11.93;;;13.40;99.90;;;;;;21141160;27;20485;-63
2022/10/23 07:43:55;;;;;;;92.40;15.95;;;13.90;99.90;;;;;;21138265;27;20047;-64
2022/10/23 07:54:00;;;;;;;16.70;8.35;;;14.40;99.90;;;;;;21138883;27;20031;-61
2022/10/23 08:04:28;;;;;;;81.45;12.63;;;14.90;99.90;;;;;;21035686;28;20389;-61
2022/10/23 08:14:40;;;;;;;24.95;11.70;;;15.10;99.90;;;;;;21034611;28;20074;-61
2022/10/23 08:24:43;;;;;;;17.50;9.65;;;15.00;99.90;;;;;;21005324;28;20155;-63
2022/10/23 08:34:46;;;;;;;17.75;8.88;;;15.40;99.90;;;;;;21062819;27;20096;-63
2022/10/23 08:45:21;;;;;;;16.85;8.50;;;15.60;99.90;;;;;;21112768;27;20047;-63
2022/10/23 08:55:42;;;;;;;17.35;5.03;;;15.40;99.90;;;;;;21105317;28;20477;-63
2022/10/23 09:06:25;;;;;;;16.48;7.60;;;15.20;99.90;;;;;;21120463;28;20039;-63
2022/10/23 09:16:55;;;;;;;18.70;8.13;;;15.60;99.90;;;;;;21134269;28;20039;-61
2022/10/23 09:26:59;;;;;;;22.37;8.73;;;15.90;99.90;;;;;;21117246;28;20023;-63
2022/10/23 09:37:44;;;;;;;17.63;7.07;;;15.90;99.90;;;;;;21152625;28;20532;-61
2022/10/23 09:47:46;;;;;;;16.00;7.82;;;16.20;99.90;;;;;;20874450;28;20102;-64
2022/10/23 09:57:51;;;;;;;17.13;6.50;;;16.40;99.90;;;;;;20874295;28;20064;-61
2022/10/23 10:08:23;;;;;;;15.30;5.45;;;16.80;99.90;;;;;;20876235;28;20414;-64
2022/10/23 10:18:41;;;;;;;26.45;6.30;;;17.50;99.90;;;;;;21033341;27;20055;-64
2022/10/23 10:29:01;;;;;;;20.80;6.38;;;17.00;99.90;;;;;;21128939;27;20096;-64
2022/10/23 10:39:30;;;;;;;15.23;5.85;;;16.70;99.90;;;;;;21144634;27;20056;-61
2022/10/23 10:49:55;;;;;;;11.63;5.53;;;16.80;99.90;;;;;;21148054;27;20447;-65
2022/10/23 11:00:23;;;;;;;15.83;6.40;;;17.20;99.90;;;;;;20901000;28;20474;-62
2022/10/23 11:10:27;;;;;;;14.82;5.65;;;17.60;99.90;;;;;;20883823;28;20443;-62
2022/10/23 11:21:18;;;;;;;16.27;5.22;;;17.80;99.90;;;;;;20895978;28;21015;-65
2022/10/23 11:31:38;;;;;;;12.73;5.38;;;17.70;99.90;;;;;;20525484;28;20050;-61
2022/10/23 11:41:55;;;;;;;11.15;5.38;;;18.00;99.90;;;;;;20640232;28;20109;-65
2022/10/23 11:52:03;;;;;;;14.60;5.93;;;17.60;99.90;;;;;;20619955;28;20050;-66
2022/10/23 12:02:25;;;;;;;11.07;5.07;;;17.60;99.90;;;;;;20767892;28;20074;-65
2022/10/23 12:12:39;;;;;;;13.60;5.32;;;17.60;99.90;;;;;;21070201;28;20036;-65
2022/10/23 12:22:56;;;;;;;13.02;5.68;;;17.50;99.90;;;;;;21052870;28;20028;-61
2022/10/23 12:33:17;;;;;;;13.50;5.15;;;17.40;99.90;;;;;;21068635;28;20101;-65
2022/10/23 12:43:27;;;;;;;13.73;5.40;;;17.10;99.90;;;;;;20893300;28;20514;-65
2022/10/23 12:53:30;;;;;;;14.85;5.70;;;17.00;99.90;;;;;;20868785;28;20048;-60
2022/10/23 13:03:34;;;;;;;16.48;6.18;;;16.80;99.90;;;;;;20875950;28;20045;-65
2022/10/23 13:13:40;;;;;;;16.02;5.35;;;16.50;99.90;;;;;;20897425;28;20048;-60
2022/10/23 13:23:43;;;;;;;15.80;5.13;;;16.50;99.90;;;;;;21050536;28;20036;-65
2022/10/23 13:34:02;;;;;;;18.05;6.47;;;16.40;99.90;;;;;;21049300;28;20040;-64
2022/10/23 13:44:04;;;;;;;25.25;7.75;;;15.70;99.90;;;;;;21077235;27;20123;-59
2022/10/23 13:54:14;;;;;;;16.83;7.95;;;14.90;99.90;;;;;;21148743;27;20140;-64
2022/10/23 14:04:17;;;;;;;;;;;14.30;99.90;;;;;;21148591;27;20035;-63
2022/10/23 14:14:20;;;;;;;17.70;7.97;;;14.30;99.90;;;;;;21151871;27;19907;-60
2022/10/23 14:24:23;;;;;;;24.63;10.15;;;14.10;99.90;;;;;;21146175;27;20031;-59
2022/10/23 14:34:26;;;;;;;18.67;7.57;;;14.10;99.90;;;;;;21145609;27;20069;-60
2022/10/23 14:44:29;;;;;;;18.52;9.00;;;14.10;99.90;;;;;;21128329;27;20447;-60
2022/10/23 14:54:33;;;;;;;21.48;9.77;;;14.10;99.90;;;;;;21143449;27;20028;-63
2022/10/23 15:04:37;;;;;;;17.30;6.40;;;14.10;99.90;;;;;;21147580;27;20027;-63
2022/10/23 15:14:40;;;;;;;29.70;9.35;;;14.10;99.90;;;;;;21142382;27;20062;-61
2022/10/23 15:24:43;;;;;;;23.45;10.73;;;14.20;99.90;;;;;;21137694;27;20046;-60
2022/10/23 15:34:48;;;;;;;26.45;12.90;;;13.80;99.90;;;;;;21140701;27;20089;-63
2022/10/23 15:44:50;;;;;;;23.08;9.07;;;13.60;99.90;;;;;;21139660;27;20043;-59
2022/10/23 15:54:53;;;;;;;16.52;8.18;;;13.50;99.90;;;;;;21142608;27;20044;-63
2022/10/23 16:04:55;;;;;;;20.25;8.90;;;13.30;99.90;;;;;;21137546;27;20090;-59
2022/10/23 16:14:59;;;;;;;26.90;11.50;;;13.10;99.90;;;;;;21137778;27;20027;-63
2022/10/23 16:25:02;;;;;;;22.08;8.65;;;12.80;99.90;;;;;;21140738;27;20453;-59
2022/10/23 16:35:05;;;;;;;30.10;10.07;;;12.30;99.90;;;;;;21135716;27;20057;-62
2022/10/23 16:45:16;;;;;;;18.73;10.05;;;12.10;99.90;;;;;;21135888;27;20047;-62
2022/10/23 16:55:19;;;;;;;29.63;13.48;;;11.80;99.90;;;;;;21118531;27;20043;-59
2022/10/23 17:05:21;;;;;;;29.77;11.75;;;11.50;99.90;;;;;;21130673;28;20058;-63
2022/10/23 17:15:25;;;;;;;26.52;9.95;;;11.50;99.90;;;;;;21152380;28;20652;-63
2022/10/23 17:25:27;;;;;;;23.63;9.88;;;11.40;99.90;;;;;;21153035;27;20073;-63
2022/10/23 17:35:30;;;;;;;28.60;10.45;;;11.40;99.90;;;;;;21133741;27;20087;-59
2022/10/23 17:45:34;;;;;;;22.88;9.35;;;11.40;99.90;;;;;;21149588;27;20151;-59
2022/10/23 17:55:39;;;;;;;25.58;10.02;;;11.60;99.90;;;;;;21148956;27;20036;-59
2022/10/23 18:05:41;;;;;;;27.33;9.50;;;11.70;99.90;;;;;;21148123;27;20036;-63
2022/10/23 18:15:45;;;;;;;21.35;8.57;;;11.90;99.90;;;;;;21130740;27;20113;-63
2022/10/23 18:25:48;;;;;;;33.40;9.32;;;12.10;99.90;;;;;;21146472;27;20097;-63
2022/10/23 18:35:51;;;;;;;31.67;9.30;;;12.00;99.90;;;;;;21144889;27;20468;-63
2022/10/23 18:45:54;;;;;;;22.75;9.85;;;11.70;99.90;;;;;;21144872;27;20052;-63
2022/10/23 18:55:57;;;;;;;28.88;11.68;;;11.40;99.90;;;;;;21143899;27;20043;-59
2022/10/23 19:05:59;;;;;;;28.15;10.38;;;11.30;99.90;;;;;;21143160;27;20040;-63
2022/10/23 19:16:09;;;;;;;32.63;11.23;;;11.40;99.90;;;;;;21142435;27;20057;-63
2022/10/23 19:26:12;;;;;;;31.77;12.48;;;11.30;99.90;;;;;;21125041;27;20077;-59
2022/10/23 19:36:15;;;;;;;31.05;12.63;;;11.30;99.90;;;;;;21140831;27;20059;-60
2022/10/23 19:46:18;;;;;;;35.63;13.32;;;11.60;99.90;;;;;;21135800;27;20059;-62
2022/10/23 19:56:21;;;;;;;24.48;11.15;;;11.90;99.90;;;;;;21122269;27;20053;-63
2022/10/23 20:06:30;;;;;;;28.90;10.65;;;12.20;99.90;;;;;;21125638;27;20421;-63
2022/10/23 20:16:37;;;;;;;22.42;10.10;;;12.50;99.90;;;;;;21135186;27;20035;-59
2022/10/23 20:26:42;;;;;;;21.05;11.35;;;12.50;99.90;;;;;;21136968;27;20043;-63
2022/10/23 20:36:48;;;;;;;21.25;11.38;;;12.30;99.90;;;;;;21136263;27;20031;-63
2022/10/23 20:46:50;;;;;;;26.60;11.68;;;12.10;99.90;;;;;;21135427;27;20096;-63
2022/10/23 20:56:54;;;;;;;28.15;12.18;;;11.90;99.90;;;;;;21134711;27;20032;-63
2022/10/23 21:06:57;;;;;;;25.45;11.75;;;11.90;99.90;;;;;;21134776;28;20057;-63
2022/10/23 21:17:01;;;;;;;26.95;13.15;;;12.00;99.90;;;;;;21117938;28;20032;-61
2022/10/23 21:27:03;;;;;;;25.88;12.82;;;11.90;99.90;;;;;;21133869;28;20529;-59
2022/10/23 21:37:06;;;;;;;22.75;11.35;;;11.80;99.90;;;;;;21133511;28;20088;-64
2022/10/23 21:47:08;;;;;;;23.73;10.70;;;12.10;99.90;;;;;;21133257;28;20396;-63
2022/10/23 21:57:13;;;;;;;22.85;10.20;;;12.10;99.90;;;;;;21133123;28;20035;-63
2022/10/23 22:07:16;;;;;;;32.40;12.68;;;12.00;99.90;;;;;;21144825;27;20051;-63
2022/10/23 22:17:19;;;;;;;22.40;10.38;;;11.70;99.90;;;;;;21147345;27;20039;-58
2022/10/23 22:27:21;;;;;;;25.05;10.30;;;11.40;99.90;;;;;;21146576;27;20590;-63
2022/10/23 22:37:24;;;;;;;27.33;11.43;;;11.30;99.90;;;;;;21149898;27;20084;-59
2022/10/23 22:47:29;;;;;;;26.27;9.88;;;11.60;99.90;;;;;;21145023;27;20071;-66
2022/10/23 22:57:31;;;;;;;28.63;11.88;;;11.70;99.90;;;;;;21144136;27;20036;-66
2022/10/23 23:07:33;;;;;;;22.25;10.48;;;11.80;99.90;;;;;;21143233;27;20035;-65
2022/10/23 23:17:36;;;;;;;22.98;11.10;;;11.70;99.90;;;;;;21142113;27;20031;-61
2022/10/23 23:27:39;;;;;;;23.45;11.15;;;11.70;99.90;;;;;;21128914;27;20032;-63
2022/10/23 23:37:41;;;;;;;26.67;10.90;;;11.60;99.90;;;;;;21141050;27;20061;-63
2022/10/23 23:47:44;;;;;;;22.90;11.60;;;11.60;99.90;;;;;;21140147;27;20061;-59
2022/10/23 23:57:46;;;;;;;23.77;10.32;;;11.50;99.90;;;;;;21122535;27;20105;-63
